^^
Your Local Weather - Clay, NY Station Historical Data
Daily Summary for February 15, 2018 Units:  English    Metric   Both
« Previous Day
Next Day »
Daily Weekly Monthly Yearly Custom
  High: Low: Average:
Temperature: 57.7 °F 25.1 °F 43.2 °F
Dew Point: 45.9 °F 22.6 °F 37.6 °F
Humidity: 92% 57% 82%
Wind Speed: 7.0mph 0.0mph 1.3mph
Wind Gust: 14.0mph - -
Wind- - SW
Pressure: 29.91 in 29.57 in -
Precipitation: 0.01 in    
Historical Graphs
 
 
Tabular Data for February 15, 2018
Time Temperature Dew Point Pressure Wind Wind Speed Wind Gust Humidity Rainfall Rate (Hourly) solar
00:00 27.6 °F 25.1 °F 29.91 in Calm     90% 0.00 in 0 W/m2
00:06 27.2 °F 24.7 °F 29.91 in Calm     90% 0.00 in 0 W/m2
00:12 27.0 °F 24.5 °F 29.91 in Calm     90% 0.00 in 0 W/m2
00:18 26.8 °F 24.3 °F 29.90 in Calm     90% 0.00 in 0 W/m2
00:24 26.6 °F 24.1 °F 29.91 in Calm     90% 0.00 in 0 W/m2
00:30 26.5 °F 24.0 °F 29.91 in Calm     90% 0.00 in 0 W/m2
00:36 26.3 °F 23.8 °F 29.90 in Calm     90% 0.00 in 0 W/m2
00:42 25.9 °F 23.4 °F 29.90 in Calm     90% 0.00 in 0 W/m2
00:48 25.8 °F 23.3 °F 29.90 in Calm     90% 0.00 in 0 W/m2
00:54 25.7 °F 23.2 °F 29.90 in Calm     90% 0.00 in 0 W/m2
01:00 25.8 °F 23.3 °F 29.89 in Calm     90% 0.00 in 0 W/m2
01:06 25.9 °F 23.6 °F 29.89 in Calm     91% 0.00 in 0 W/m2
01:12 26.0 °F 23.7 °F 29.89 in Calm     91% 0.00 in 0 W/m2
01:18 25.9 °F 23.4 °F 29.89 in Calm     90% 0.00 in 0 W/m2
01:24 25.6 °F 23.1 °F 29.88 in Calm     90% 0.00 in 0 W/m2
01:30 25.3 °F 23.0 °F 29.88 in Calm     91% 0.00 in 0 W/m2
01:36 25.1 °F 22.6 °F 29.88 in Calm     90% 0.00 in 0 W/m2
01:42 25.1 °F 22.6 °F 29.88 in Calm     90% 0.00 in 0 W/m2
01:48 25.2 °F 22.9 °F 29.88 in Calm     91% 0.00 in 0 W/m2
01:54 25.2 °F 22.9 °F 29.88 in Calm     91% 0.00 in 0 W/m2
02:00 25.3 °F 23.0 °F 29.88 in Calm     91% 0.00 in 0 W/m2
02:06 25.4 °F 23.1 °F 29.88 in Calm     91% 0.00 in 0 W/m2
02:12 25.4 °F 23.1 °F 29.87 in Calm     91% 0.00 in 0 W/m2
02:18 25.3 °F 23.0 °F 29.87 in Calm     91% 0.00 in 0 W/m2
02:24 25.3 °F 23.0 °F 29.87 in Calm     91% 0.00 in 0 W/m2
02:30 25.5 °F 23.2 °F 29.87 in Calm     91% 0.00 in 0 W/m2
02:36 25.9 °F 23.6 °F 29.87 in Calm     91% 0.00 in 0 W/m2
02:42 26.4 °F 24.1 °F 29.86 in Calm     91% 0.00 in 0 W/m2
02:48 26.7 °F 24.4 °F 29.85 in Calm     91% 0.00 in 0 W/m2
02:54 27.1 °F 24.8 °F 29.85 in Calm     91% 0.00 in 0 W/m2
03:00 27.7 °F 25.4 °F 29.85 in Calm     91% 0.00 in 0 W/m2
03:06 28.0 °F 25.7 °F 29.85 in Calm     91% 0.00 in 0 W/m2
03:12 28.3 °F 26.3 °F 29.85 in Calm     92% 0.00 in 0 W/m2
03:18 28.7 °F 26.7 °F 29.84 in Calm     92% 0.00 in 0 W/m2
03:24 29.0 °F 27.0 °F 29.84 in Calm   1.0 mph 92% 0.00 in 0 W/m2
03:30 29.6 °F 27.6 °F 29.84 in Calm     92% 0.00 in 0 W/m2
03:36 30.0 °F 28.0 °F 29.84 in Calm     92% 0.00 in 0 W/m2
03:42 30.4 °F 28.4 °F 29.83 in Calm     92% 0.00 in 0 W/m2
03:48 30.7 °F 28.7 °F 29.82 in Calm   2.0 mph 92% 0.00 in 0 W/m2
03:54 31.2 °F 29.1 °F 29.82 in Calm   1.0 mph 92% 0.00 in 0 W/m2
04:00 31.7 °F 29.6 °F 29.82 in Calm     92% 0.00 in 0 W/m2
04:10 32.3 °F 30.2 °F 29.82 in SE 1.0 mph 2.0 mph 92% 0.00 in 0 W/m2
04:16 32.5 °F 30.4 °F 29.81 in SE 1.0 mph 2.0 mph 92% 0.00 in 0 W/m2
04:22 32.7 °F 30.6 °F 29.81 in Calm     92% 0.00 in 0 W/m2
04:28 32.8 °F 30.7 °F 29.82 in Calm     92% 0.00 in 0 W/m2
04:34 32.8 °F 30.7 °F 29.81 in Calm     92% 0.00 in 0 W/m2
04:40 32.6 °F 30.5 °F 29.82 in Calm     92% 0.00 in 0 W/m2
04:46 32.6 °F 30.5 °F 29.81 in Calm     92% 0.00 in 0 W/m2
04:52 32.5 °F 30.4 °F 29.80 in Calm   2.0 mph 92% 0.00 in 0 W/m2
04:58 32.4 °F 30.3 °F 29.80 in Calm   2.0 mph 92% 0.00 in 0 W/m2
05:04 32.5 °F 30.4 °F 29.80 in Calm   1.0 mph 92% 0.00 in 0 W/m2
05:10 32.6 °F 30.5 °F 29.80 in Calm     92% 0.00 in 0 W/m2
05:16 32.7 °F 30.6 °F 29.80 in Calm     92% 0.00 in 0 W/m2
05:22 32.9 °F 30.8 °F 29.80 in Calm     92% 0.00 in 0 W/m2
05:28 32.9 °F 30.8 °F 29.79 in Calm   1.0 mph 92% 0.00 in 0 W/m2
05:34 33.2 °F 31.1 °F 29.80 in Calm     92% 0.00 in 0 W/m2
05:40 33.6 °F 31.5 °F 29.79 in Calm     92% 0.00 in 0 W/m2
05:46 33.6 °F 31.5 °F 29.79 in Calm   1.0 mph 92% 0.00 in 0 W/m2
05:52 33.6 °F 31.5 °F 29.78 in Calm     92% 0.00 in 0 W/m2
05:58 33.6 °F 31.5 °F 29.78 in Calm     92% 0.00 in 0 W/m2
06:04 33.7 °F 31.6 °F 29.78 in Calm   2.0 mph 92% 0.00 in 0 W/m2
06:10 33.5 °F 31.4 °F 29.77 in Calm     92% 0.00 in 0 W/m2
06:16 33.3 °F 31.2 °F 29.77 in Calm     92% 0.00 in 0 W/m2
06:22 33.5 °F 31.4 °F 29.77 in Calm     92% 0.00 in 0 W/m2
06:28 34.0 °F 31.9 °F 29.77 in Calm     92% 0.00 in 0 W/m2
06:34 33.7 °F 31.6 °F 29.76 in Calm     92% 0.00 in 0 W/m2
06:40 33.7 °F 31.6 °F 29.76 in Calm     92% 0.00 in 0 W/m2
06:46 33.6 °F 31.5 °F 29.75 in Calm     92% 0.00 in 0 W/m2
06:52 33.6 °F 31.5 °F 29.75 in Calm     92% 0.00 in 0 W/m2
06:58 33.7 °F 31.6 °F 29.76 in Calm     92% 0.00 in 0 W/m2
07:04 34.0 °F 31.9 °F 29.76 in Calm     92% 0.00 in 0 W/m2
07:10 33.9 °F 31.8 °F 29.76 in Calm     92% 0.00 in 5 W/m2
07:16 34.1 °F 32.0 °F 29.75 in Calm     92% 0.00 in 7 W/m2
07:22 34.1 °F 32.0 °F 29.76 in Calm     92% 0.00 in 7 W/m2
07:28 34.0 °F 31.6 °F 29.76 in Calm     91% 0.00 in 7 W/m2
07:34 33.9 °F 31.6 °F 29.76 in Calm     91% 0.00 in 7 W/m2
07:40 34.2 °F 31.8 °F 29.74 in South 1.0 mph 1.0 mph 91% 0.00 in 28 W/m2
07:46 34.6 °F 32.5 °F 29.75 in South 1.0 mph 1.0 mph 92% 0.00 in 28 W/m2
07:52 35.2 °F 33.1 °F 29.74 in SE 1.0 mph 2.0 mph 92% 0.00 in 47 W/m2
07:58 35.6 °F 33.5 °F 29.74 in SE 1.0 mph 2.0 mph 92% 0.00 in 56 W/m2
08:04 35.7 °F 33.6 °F 29.74 in Calm   1.0 mph 92% 0.00 in 60 W/m2
08:10 36.0 °F 33.9 °F 29.74 in Calm     92% 0.00 in 83 W/m2
08:16 36.6 °F 34.5 °F 29.73 in Calm   1.0 mph 92% 0.00 in 83 W/m2
08:22 37.4 °F 35.3 °F 29.72 in SE 1.0 mph 1.0 mph 92% 0.00 in 95 W/m2
08:28 39.8 °F 37.7 °F 29.73 in SSE 1.0 mph 2.0 mph 92% 0.00 in 58 W/m2
08:34 41.7 °F 39.5 °F 29.72 in SSE 1.0 mph 1.0 mph 92% 0.00 in 88 W/m2
08:40 43.5 °F 41.3 °F 29.72 in South 2.0 mph 2.0 mph 92% 0.00 in 83 W/m2
08:46 45.0 °F 42.8 °F 29.72 in SSW 2.0 mph 4.0 mph 92% 0.00 in 56 W/m2
08:52 45.8 °F 43.3 °F 29.72 in South 3.0 mph 3.0 mph 91% 0.00 in 63 W/m2
08:58 46.2 °F 43.4 °F 29.71 in South 2.0 mph 3.0 mph 90% 0.00 in 86 W/m2
09:04 46.7 °F 43.6 °F 29.72 in South 2.0 mph 3.0 mph 89% 0.00 in 54 W/m2
09:10 46.9 °F 43.5 °F 29.72 in South 1.0 mph 1.0 mph 88% 0.00 in 60 W/m2
09:16 47.0 °F 43.3 °F 29.71 in South 2.0 mph 3.0 mph 87% 0.00 in 58 W/m2
09:22 46.8 °F 42.8 °F 29.71 in South 2.0 mph 2.0 mph 86% 0.00 in 70 W/m2
09:28 47.1 °F 42.8 °F 29.71 in South 1.0 mph 2.0 mph 85% 0.00 in 77 W/m2
09:34 47.4 °F 43.1 °F 29.71 in SE 1.0 mph 2.0 mph 85% 0.00 in 51 W/m2
09:40 47.6 °F 43.3 °F 29.70 in SSW 1.0 mph 1.0 mph 85% 0.00 in 56 W/m2
09:46 47.7 °F 43.1 °F 29.70 in SSW 1.0 mph 3.0 mph 84% 0.00 in 63 W/m2
09:52 48.0 °F 43.4 °F 29.70 in SSW 1.0 mph 1.0 mph 84% 0.00 in 70 W/m2
09:58 48.1 °F 43.5 °F 29.70 in South 1.0 mph 1.0 mph 84% 0.00 in 58 W/m2
10:04 48.3 °F 43.4 °F 29.70 in South 1.0 mph 1.0 mph 83% 0.00 in 63 W/m2
10:10 48.3 °F 43.4 °F 29.70 in Calm   1.0 mph 83% 0.00 in 98 W/m2
10:16 48.3 °F 43.4 °F 29.69 in Calm   2.0 mph 83% 0.00 in 174 W/m2
10:22 49.0 °F 44.1 °F 29.70 in SSE 1.0 mph 1.0 mph 83% 0.00 in 213 W/m2
10:24 49.2 °F 44.3 °F 29.70 in SSE 1.0 mph 1.0 mph 83% 0.00 in 192 W/m2
10:30 49.8 °F 44.2 °F 29.69 in Calm     81% 0.00 in 271 W/m2
10:36 50.3 °F 44.4 °F 29.69 in Calm   1.0 mph 80% 0.00 in 246 W/m2
10:42 51.0 °F 44.7 °F 29.69 in SSE 1.0 mph 3.0 mph 79% 0.00 in 179 W/m2
10:48 51.6 °F 45.0 °F 29.69 in SSE 1.0 mph 3.0 mph 78% 0.00 in 253 W/m2
10:54 51.9 °F 44.9 °F 29.69 in SSW 2.0 mph 4.0 mph 77% 0.00 in 237 W/m2
11:00 52.4 °F 45.4 °F 29.69 in West 3.0 mph 3.0 mph 77% 0.00 in 279 W/m2
11:06 52.9 °F 45.5 °F 29.69 in SSW 3.0 mph 3.0 mph 76% 0.00 in 278 W/m2
11:12 53.5 °F 45.8 °F 29.69 in South 3.0 mph 3.0 mph 75% 0.00 in 301 W/m2
11:18 53.9 °F 45.8 °F 29.69 in SW 3.0 mph 4.0 mph 74% 0.00 in 271 W/m2
11:24 54.0 °F 45.5 °F 29.69 in WSW 4.0 mph 4.0 mph 73% 0.00 in 308 W/m2
11:30 54.3 °F 45.8 °F 29.69 in West 4.0 mph 5.0 mph 73% 0.00 in 381 W/m2
11:36 54.5 °F 45.7 °F 29.69 in NW 4.0 mph 7.0 mph 72% 0.00 in 281 W/m2
11:42 55.0 °F 45.8 °F 29.69 in SW 4.0 mph 4.0 mph 71% 0.00 in 640 W/m2
11:48 55.5 °F 45.9 °F 29.68 in West 5.0 mph 5.0 mph 70% 0.00 in 561 W/m2
11:54 55.7 °F 45.7 °F 29.68 in SSW 6.0 mph 8.0 mph 69% 0.00 in 547 W/m2
12:00 55.8 °F 45.8 °F 29.67 in WNW 7.0 mph 7.0 mph 69% 0.00 in 548 W/m2
12:06 56.0 °F 45.6 °F 29.67 in West 6.0 mph 9.0 mph 68% 0.00 in 608 W/m2
12:12 56.4 °F 45.6 °F 29.67 in WNW 6.0 mph 14.0 mph 67% 0.00 in 573 W/m2
12:18 56.5 °F 45.3 °F 29.67 in WSW 6.0 mph 14.0 mph 66% 0.00 in 557 W/m2
12:24 56.8 °F 45.6 °F 29.67 in West 5.0 mph 6.0 mph 66% 0.00 in 529 W/m2
12:30 56.8 °F 45.2 °F 29.66 in West 6.0 mph 6.0 mph 65% 0.00 in 533 W/m2
12:36 57.2 °F 45.1 °F 29.67 in SW 5.0 mph 7.0 mph 64% 0.00 in 455 W/m2
12:42 57.1 °F 44.6 °F 29.67 in WSW 5.0 mph 5.0 mph 63% 0.00 in 385 W/m2
12:48 57.0 °F 44.1 °F 29.66 in West 5.0 mph 9.0 mph 62% 0.00 in 418 W/m2
12:54 57.2 °F 43.9 °F 29.66 in West 5.0 mph 9.0 mph 61% 0.00 in 450 W/m2
13:00 57.2 °F 43.4 °F 29.66 in West 5.0 mph 5.0 mph 60% 0.00 in 401 W/m2
13:06 57.2 °F 43.4 °F 29.66 in WSW 4.0 mph 6.0 mph 60% 0.00 in 427 W/m2
13:12 57.3 °F 43.1 °F 29.66 in WSW 4.0 mph 13.0 mph 59% 0.00 in 360 W/m2
13:24 57.5 °F 42.8 °F 29.66 in West 4.0 mph 4.0 mph 58% 0.00 in 343 W/m2
13:30 57.7 °F 43.0 °F 29.65 in WSW 3.0 mph 3.0 mph 58% 0.00 in 359 W/m2
13:36 57.7 °F 42.6 °F 29.65 in WNW 3.0 mph 5.0 mph 57% 0.00 in 367 W/m2
13:42 57.6 °F 42.9 °F 29.65 in WSW 5.0 mph 9.0 mph 58% 0.00 in 339 W/m2
13:48 57.4 °F 42.7 °F 29.65 in WSW 5.0 mph 9.0 mph 58% 0.00 in 288 W/m2
13:54 57.1 °F 42.5 °F 29.65 in WSW 4.0 mph 7.0 mph 58% 0.00 in 255 W/m2
14:00 57.0 °F 42.8 °F 29.65 in West 4.0 mph 6.0 mph 59% 0.00 in 223 W/m2
14:06 56.8 °F 42.6 °F 29.65 in West 4.0 mph 4.0 mph 59% 0.00 in 188 W/m2
14:12 56.6 °F 42.9 °F 29.64 in WSW 4.0 mph 4.0 mph 60% 0.00 in 165 W/m2
14:18 56.5 °F 42.8 °F 29.65 in WSW 4.0 mph 5.0 mph 60% 0.00 in 151 W/m2
14:24 56.3 °F 43.0 °F 29.65 in WSW 4.0 mph 10.0 mph 61% 0.00 in 149 W/m2
14:30 56.3 °F 43.0 °F 29.65 in WSW 4.0 mph 4.0 mph 61% 0.00 in 144 W/m2
14:36 56.0 °F 42.7 °F 29.65 in WSW 3.0 mph 7.0 mph 61% 0.00 in 165 W/m2
14:42 56.0 °F 43.2 °F 29.65 in SSW 3.0 mph 7.0 mph 62% 0.00 in 188 W/m2
14:48 56.0 °F 43.2 °F 29.65 in SSW 3.0 mph 9.0 mph 62% 0.00 in 199 W/m2
14:54 56.1 °F 43.3 °F 29.64 in West 4.0 mph 4.0 mph 62% 0.00 in 181 W/m2
15:00 56.1 °F 43.7 °F 29.64 in WSW 4.0 mph 4.0 mph 63% 0.00 in 169 W/m2
15:06 56.0 °F 43.6 °F 29.64 in West 3.0 mph 4.0 mph 63% 0.00 in 279 W/m2
15:12 56.4 °F 44.0 °F 29.64 in WSW 4.0 mph 4.0 mph 63% 0.00 in 183 W/m2
15:18 56.2 °F 43.8 °F 29.63 in West 5.0 mph 7.0 mph 63% 0.00 in 137 W/m2
15:24 56.1 °F 44.1 °F 29.63 in SW 5.0 mph 5.0 mph 64% 0.00 in 174 W/m2
15:30 56.0 °F 44.0 °F 29.63 in SSW 4.0 mph 7.0 mph 64% 0.00 in 163 W/m2
15:36 56.0 °F 44.0 °F 29.63 in West 4.0 mph 7.0 mph 64% 0.00 in 144 W/m2
15:42 55.9 °F 43.9 °F 29.63 in SW 3.0 mph 3.0 mph 64% 0.00 in 100 W/m2
15:48 55.9 °F 43.9 °F 29.63 in SW 3.0 mph 5.0 mph 64% 0.00 in 134 W/m2
15:54 55.9 °F 43.9 °F 29.63 in WSW 3.0 mph 3.0 mph 64% 0.00 in 123 W/m2
16:00 55.8 °F 43.8 °F 29.63 in West 2.0 mph 7.0 mph 64% 0.00 in 104 W/m2
16:06 55.6 °F 44.0 °F 29.63 in West 2.0 mph 7.0 mph 65% 0.00 in 74 W/m2
16:14 55.5 °F 43.9 °F 29.62 in West 2.0 mph 2.0 mph 65% 0.00 in 77 W/m2
16:22 55.5 °F 44.3 °F 29.62 in SW 2.0 mph 3.0 mph 66% 0.00 in 58 W/m2
16:28 55.3 °F 44.1 °F 29.62 in WSW 2.0 mph 3.0 mph 66% 0.00 in 51 W/m2
16:34 55.2 °F 44.0 °F 29.62 in WSW 1.0 mph 2.0 mph 66% 0.00 in 40 W/m2
16:40 55.1 °F 44.3 °F 29.62 in WSW 1.0 mph 2.0 mph 67% 0.00 in 39 W/m2
16:46 54.8 °F 44.0 °F 29.62 in WSW 1.0 mph 2.0 mph 67% 0.00 in 35 W/m2
16:52 54.6 °F 43.9 °F 29.63 in Calm   1.0 mph 67% 0.00 in 26 W/m2
16:58 54.2 °F 43.9 °F 29.63 in Calm   1.0 mph 68% 0.00 in 19 W/m2
17:04 54.0 °F 44.1 °F 29.64 in Calm     69% 0.00 in 9 W/m2
17:10 53.8 °F 43.9 °F 29.64 in WSW 1.0 mph 1.0 mph 69% 0.00 in 5 W/m2
17:16 53.6 °F 43.7 °F 29.64 in Calm   1.0 mph 69% 0.00 in 5 W/m2
17:22 53.2 °F 43.7 °F 29.63 in Calm     70% 0.00 in 0 W/m2
17:28 52.9 °F 43.4 °F 29.63 in Calm   1.0 mph 70% 0.00 in 0 W/m2
17:34 52.5 °F 43.4 °F 29.64 in Calm   1.0 mph 71% 0.00 in 0 W/m2
17:40 52.1 °F 43.0 °F 29.64 in Calm     71% 0.00 in 0 W/m2
17:46 51.2 °F 42.1 °F 29.63 in Calm     71% 0.00 in 0 W/m2
17:52 50.3 °F 42.0 °F 29.63 in Calm   1.0 mph 73% 0.00 in 0 W/m2
17:58 50.2 °F 42.2 °F 29.63 in WSW 1.0 mph 1.0 mph 74% 0.00 in 0 W/m2
18:04 50.5 °F 42.9 °F 29.63 in Calm     75% 0.00 in 0 W/m2
18:10 51.0 °F 43.0 °F 29.63 in Calm     74% 0.00 in 0 W/m2
18:16 50.9 °F 42.9 °F 29.63 in Calm   1.0 mph 74% 0.00 in 0 W/m2
18:22 50.8 °F 42.8 °F 29.63 in Calm   2.0 mph 74% 0.00 in 0 W/m2
18:28 50.5 °F 42.5 °F 29.63 in Calm   2.0 mph 74% 0.00 in 0 W/m2
18:34 50.2 °F 42.6 °F 29.63 in Calm     75% 0.00 in 0 W/m2
18:40 50.1 °F 42.8 °F 29.63 in Calm   1.0 mph 76% 0.00 in 0 W/m2
18:46 50.4 °F 43.1 °F 29.62 in WSW 1.0 mph 1.0 mph 76% 0.00 in 0 W/m2
18:52 50.7 °F 43.8 °F 29.62 in South 1.0 mph 2.0 mph 77% 0.00 in 0 W/m2
18:58 51.0 °F 43.7 °F 29.62 in South 1.0 mph 2.0 mph 76% 0.00 in 0 W/m2
19:04 50.7 °F 43.8 °F 29.62 in South 1.0 mph 1.0 mph 77% 0.00 in 0 W/m2
19:10 50.5 °F 43.9 °F 29.61 in Calm   2.0 mph 78% 0.00 in 0 W/m2
19:16 50.6 °F 44.0 °F 29.61 in South 1.0 mph 2.0 mph 78% 0.00 in 0 W/m2
19:22 50.5 °F 43.9 °F 29.61 in Calm     78% 0.00 in 0 W/m2
19:28 49.8 °F 43.5 °F 29.61 in Calm     79% 0.00 in 0 W/m2
19:34 49.2 °F 43.3 °F 29.61 in Calm   1.0 mph 80% 0.00 in 0 W/m2
19:40 48.9 °F 43.3 °F 29.60 in Calm     81% 0.00 in 0 W/m2
19:46 48.4 °F 42.8 °F 29.60 in Calm     81% 0.00 in 0 W/m2
19:52 47.2 °F 41.7 °F 29.59 in Calm     81% 0.00 in 0 W/m2
19:58 46.0 °F 40.8 °F 29.59 in Calm     82% 0.00 in 0 W/m2
20:04 45.4 °F 40.5 °F 29.59 in Calm   1.0 mph 83% 0.00 in 0 W/m2
20:10 44.6 °F 39.8 °F 29.59 in Calm     83% 0.00 in 0 W/m2
20:16 43.7 °F 39.2 °F 29.59 in Calm     84% 0.00 in 0 W/m2
20:22 43.0 °F 38.5 °F 29.58 in Calm     84% 0.00 in 0 W/m2
20:28 42.8 °F 38.9 °F 29.58 in Calm     86% 0.00 in 0 W/m2
20:34 42.8 °F 39.2 °F 29.58 in Calm     87% 0.00 in 0 W/m2
20:40 42.3 °F 38.7 °F 29.58 in Calm     87% 0.00 in 0 W/m2
20:46 42.0 °F 38.7 °F 29.57 in Calm     88% 0.00 in 0 W/m2
20:52 41.9 °F 38.6 °F 29.57 in Calm     88% 0.00 in 0 W/m2
20:58 41.6 °F 38.3 °F 29.58 in Calm     88% 0.00 in 0 W/m2
21:04 41.5 °F 38.5 °F 29.57 in Calm     89% 0.00 in 0 W/m2
21:10 41.3 °F 38.3 °F 29.58 in Calm     89% 0.00 in 0 W/m2
21:16 41.1 °F 38.1 °F 29.58 in Calm     89% 0.00 in 0 W/m2
21:22 40.8 °F 37.8 °F 29.58 in Calm     89% 0.00 in 0 W/m2
21:28 40.4 °F 37.4 °F 29.58 in Calm   1.0 mph 89% 0.00 in 0 W/m2
21:34 40.2 °F 37.2 °F 29.59 in Calm     89% 0.00 in 0 W/m2
21:40 40.6 °F 37.9 °F 29.58 in Calm     90% 0.00 in 0 W/m2
21:46 40.9 °F 38.2 °F 29.58 in Calm     90% 0.00 in 0 W/m2
21:52 41.1 °F 38.4 °F 29.58 in Calm     90% 0.00 in 0 W/m2
21:58 41.3 °F 38.6 °F 29.58 in Calm     90% 0.00 in 0 W/m2
22:04 41.3 °F 38.6 °F 29.58 in Calm     90% 0.00 in 0 W/m2
22:10 41.5 °F 39.1 °F 29.58 in Calm     91% 0.00 in 0 W/m2
22:16 41.8 °F 39.4 °F 29.59 in Calm     91% 0.00 in 0 W/m2
22:22 41.6 °F 39.2 °F 29.59 in Calm   2.0 mph 91% 0.00 in 0 W/m2
22:28 41.3 °F 38.9 °F 29.59 in South 1.0 mph 2.0 mph 91% 0.00 in 0 W/m2
22:34 42.9 °F 40.5 °F 29.59 in North 2.0 mph 7.0 mph 91% 0.00 in 0 W/m2
22:40 43.5 °F 41.3 °F 29.59 in NNE 3.0 mph 3.0 mph 92% 0.00 in 0 W/m2
22:46 44.2 °F 42.0 °F 29.58 in North 3.0 mph 4.0 mph 92% 0.00 in 0 W/m2
22:52 44.7 °F 42.5 °F 29.59 in NNW 3.0 mph 3.0 mph 92% 0.00 in 0 W/m2
22:58 44.7 °F 42.5 °F 29.59 in NNW 3.0 mph 3.0 mph 92% 0.00 in 0 W/m2
23:04 44.8 °F 42.6 °F 29.59 in NNW 2.0 mph 4.0 mph 92% 0.00 in 0 W/m2
23:10 44.9 °F 42.7 °F 29.59 in NNW 2.0 mph 2.0 mph 92% 0.00 in 0 W/m2
23:16 44.8 °F 42.6 °F 29.59 in NNW 1.0 mph 3.0 mph 92% 0.00 in 0 W/m2
23:22 44.8 °F 42.6 °F 29.59 in NW 2.0 mph 3.0 mph 92% 0.00 in 0 W/m2
23:28 45.2 °F 43.0 °F 29.61 in NW 4.0 mph 6.0 mph 92% 0.00 in 0 W/m2
23:34 45.1 °F 42.9 °F 29.61 in NNW 3.0 mph 4.0 mph 92% 0.00 in 0 W/m2
23:40 45.1 °F 42.9 °F 29.61 in NNW 3.0 mph 3.0 mph 92% 0.00 in 0 W/m2
23:46 44.9 °F 42.7 °F 29.61 in NNW 4.0 mph 5.0 mph 92% 0.00 in 0 W/m2
23:52 44.5 °F 42.3 °F 29.61 in NW 4.0 mph 4.0 mph 92% 0.00 in 0 W/m2
23:58 44.4 °F 42.2 °F 29.61 in NW 4.0 mph 7.0 mph 92% 0.00 in 0 W/m2
Country Meadow, Clay, NY, USA
Compliments of Weather Underground - 2 mb